Time;durP1;ratioP1;P1;durP2;ratioP2;P2;SDS_P1;SDS_P2;PMS_P1;PMS_P2;Temp;Humidity;BMP_temperature;BMP_pressure;BME280_temperature;BME280_humidity;BME280_pressure;Samples;Min_cycle;Max_cycle;Signal;HPM_P1;HPM_P2
2022/08/07 00:00:20;;;;;;;1.00;0.30;;;;;;;18.26;38.72;97896.53;4896988;28;20343;-77
2022/08/07 00:02:46;;;;;;;0.35;0.20;;;;;;;18.18;38.67;97882.09;4911530;28;20277;-76
2022/08/07 00:05:11;;;;;;;1.85;0.30;;;;;;;18.28;38.58;97886.47;4937197;28;20624;-77
2022/08/07 00:07:37;;;;;;;1.58;0.15;;;;;;;18.20;38.54;97887.06;4930749;28;20282;-77
2022/08/07 00:10:03;;;;;;;1.05;0.20;;;;;;;18.29;38.57;97888.06;4932077;28;20693;-76
2022/08/07 00:12:28;;;;;;;0.43;0.20;;;;;;;18.30;38.50;97890.44;4915935;28;20717;-77
2022/08/07 00:14:54;;;;;;;0.52;0.20;;;;;;;18.14;38.73;97876.56;4939878;28;20278;-77
2022/08/07 00:17:19;;;;;;;0.38;0.20;;;;;;;18.37;38.31;97871.66;4927985;28;20183;-77
2022/08/07 00:19:45;;;;;;;1.55;0.28;;;;;;;18.34;38.66;97872.22;4932675;28;20285;-77
2022/08/07 00:22:10;;;;;;;1.38;0.30;;;;;;;18.36;38.46;97880.63;4931016;28;20202;-77
2022/08/07 00:24:36;;;;;;;1.13;0.30;;;;;;;18.20;38.96;97876.53;4899675;28;20201;-76
2022/08/07 00:27:02;;;;;;;0.52;0.30;;;;;;;18.34;38.64;97874.84;4928330;28;20167;-76
2022/08/07 00:29:28;;;;;;;0.85;0.30;;;;;;;18.14;39.09;97875.78;4932432;28;20269;-76
2022/08/07 00:31:58;;;;;;;1.52;0.30;;;;;;;18.31;38.80;97870.13;4915501;28;20166;-77
2022/08/07 00:34:24;;;;;;;0.30;0.30;;;;;;;18.21;39.05;97865.72;4917244;28;20203;-76
2022/08/07 00:36:50;;;;;;;1.58;0.20;;;;;;;18.18;39.13;97862.84;4949687;28;20177;-77
2022/08/07 00:39:15;;;;;;;1.15;0.20;;;;;;;18.15;39.17;97859.72;4931264;28;20403;-77
2022/08/07 00:41:47;;;;;;;0.30;0.20;;;;;;;17.82;39.44;97861.25;4931402;28;20128;-77
2022/08/07 00:44:13;;;;;;;0.52;0.20;;;;;;;18.15;38.97;97867.63;4946856;28;20140;-77
2022/08/07 00:46:38;;;;;;;0.57;0.20;;;;;;;18.08;39.19;97867.16;4922589;28;20639;-77
2022/08/07 00:49:03;;;;;;;0.50;0.20;;;;;;;18.02;39.10;97854.28;4930270;28;20110;-76
2022/08/07 00:51:29;;;;;;;1.35;0.38;;;;;;;17.85;39.78;97857.28;4930863;28;20294;-77
2022/08/07 00:53:54;;;;;;;1.25;0.20;;;;;;;17.89;39.61;97853.84;4915820;28;20200;-77
2022/08/07 00:56:21;;;;;;;1.02;0.20;;;;;;;17.88;39.80;97852.28;4931911;28;20209;-77
2022/08/07 00:58:46;;;;;;;0.30;0.20;;;;;;;17.85;39.80;97846.75;4930303;28;20436;-76
2022/08/07 01:01:12;;;;;;;0.88;0.20;;;;;;;17.79;39.84;97849.41;4917161;28;20548;-76
2022/08/07 01:03:38;;;;;;;1.15;0.22;;;;;;;17.74;40.06;97849.44;4949175;28;20118;-77
2022/08/07 01:06:04;;;;;;;0.77;0.20;;;;;;;17.73;40.18;97850.50;4948780;28;20267;-76
2022/08/07 01:08:30;;;;;;;1.33;0.20;;;;;;;17.73;40.30;97850.50;4930969;28;20202;-76
2022/08/07 01:10:56;;;;;;;0.32;0.20;;;;;;;17.76;40.23;97838.63;4932293;28;20141;-77
2022/08/07 01:13:21;;;;;;;0.70;0.50;;;;;;;17.68;40.40;97839.22;4931658;28;20608;-76
2022/08/07 01:15:48;;;;;;;0.90;0.20;;;;;;;17.52;40.48;97843.81;4915505;28;20135;-76
2022/08/07 01:18:14;;;;;;;1.58;0.20;;;;;;;17.72;40.07;97837.63;4927843;28;20640;-76
2022/08/07 01:20:43;;;;;;;2.58;0.30;;;;;;;17.68;40.39;97849.75;4930660;28;20206;-77
2022/08/07 01:23:10;;;;;;;0.47;0.28;;;;;;;17.68;40.34;97841.84;4931793;28;20527;-77
2022/08/07 01:25:36;;;;;;;0.63;0.20;;;;;;;17.64;40.34;97846.09;4912717;28;20447;-77
2022/08/07 01:28:02;;;;;;;0.45;0.20;;;;;;;17.67;40.46;97846.34;4913537;28;20296;-77
2022/08/07 01:30:28;;;;;;;0.47;0.20;;;;;;;17.56;40.56;97835.09;4930256;28;20196;-77
2022/08/07 01:32:54;;;;;;;0.25;0.20;;;;;;;17.69;40.36;97840.81;4928548;28;20225;-77
2022/08/07 01:35:19;;;;;;;0.55;0.20;;;;;;;17.65;40.45;97843.19;4896419;28;20264;-76
2022/08/07 01:37:46;;;;;;;1.50;0.30;;;;;;;17.57;40.62;97841.13;4897967;28;20245;-77
2022/08/07 01:40:12;;;;;;;0.50;0.20;;;;;;;17.62;40.62;97846.38;4914181;28;20354;-76
2022/08/07 01:42:37;;;;;;;0.80;0.22;;;;;;;17.50;40.24;97840.66;4926648;28;20242;-76
2022/08/07 01:45:04;;;;;;;0.60;0.25;;;;;;;17.55;40.60;97848.53;4895485;28;20256;-77
2022/08/07 01:47:29;;;;;;;1.27;0.65;;;;;;;17.45;40.75;97846.72;4930373;28;20674;-76
2022/08/07 01:49:55;;;;;;;0.40;0.40;;;;;;;17.48;40.94;97845.38;4897363;28;20208;-76
2022/08/07 01:52:23;;;;;;;0.40;0.20;;;;;;;17.40;40.78;97852.81;4912367;28;20515;-77
2022/08/07 01:54:50;;;;;;;0.30;0.30;;;;;;;17.27;41.05;97842.88;4933119;28;20698;-77
2022/08/07 01:57:20;;;;;;;0.43;0.20;;;;;;;17.35;41.13;97850.19;4930353;28;20336;-77
2022/08/07 01:59:49;;;;;;;0.90;0.73;;;;;;;17.32;41.10;97842.84;4935557;28;20186;-76
2022/08/07 02:02:19;;;;;;;0.38;0.20;;;;;;;17.27;41.42;97848.13;4930013;28;20179;-76
2022/08/07 02:04:50;;;;;;;1.55;0.28;;;;;;;17.30;41.22;97850.22;4930928;28;20198;-78
2022/08/07 02:07:18;;;;;;;1.38;1.20;;;;;;;17.22;41.25;97838.44;4930190;28;20222;-76
2022/08/07 02:09:44;;;;;;;0.50;0.22;;;;;;;17.25;41.63;97838.94;4945341;28;20282;-77
2022/08/07 02:12:17;;;;;;;0.20;0.20;;;;;;;17.32;41.55;97839.44;4934726;28;20179;-77
2022/08/07 02:14:48;;;;;;;1.13;0.20;;;;;;;17.23;41.40;97833.94;4930319;28;20283;-77
2022/08/07 02:17:14;;;;;;;0.77;0.55;;;;;;;17.21;41.43;97828.19;4945621;28;20293;-77
2022/08/07 02:19:45;;;;;;;1.88;0.20;;;;;;;17.27;41.31;97834.19;4912388;28;20638;-77
2022/08/07 02:22:11;;;;;;;0.45;0.25;;;;;;;17.27;41.31;97827.06;4901676;28;20279;-75
2022/08/07 02:24:39;;;;;;;0.43;0.20;;;;;;;17.41;41.01;97822.81;4910565;28;20211;-75
2022/08/07 02:27:05;;;;;;;0.43;0.20;;;;;;;17.39;41.17;97817.03;4911491;28;20189;-75
2022/08/07 02:29:31;;;;;;;1.00;0.20;;;;;;;17.36;41.24;97819.41;4927537;28;20704;-75
2022/08/07 02:31:59;;;;;;;0.85;0.20;;;;;;;17.34;41.24;97819.69;4925698;28;20841;-74
2022/08/07 02:34:24;;;;;;;0.57;0.20;;;;;;;17.26;41.41;97815.00;4910375;28;20216;-74
2022/08/07 02:36:50;;;;;;;1.05;0.20;;;;;;;17.20;41.60;97821.31;4943780;28;20676;-75
2022/08/07 02:39:16;;;;;;;0.75;0.30;;;;;;;17.15;41.66;97822.16;4927080;28;20192;-75
2022/08/07 02:41:42;;;;;;;0.60;0.22;;;;;;;17.13;41.77;97815.59;4926359;28;20178;-74
2022/08/07 02:44:08;;;;;;;0.98;0.30;;;;;;;17.15;41.87;97814.25;4926599;28;20617;-75
2022/08/07 02:46:35;;;;;;;0.55;0.20;;;;;;;16.96;42.15;97806.19;4926458;28;20624;-74
2022/08/07 02:49:00;;;;;;;1.33;0.22;;;;;;;16.95;42.42;97804.63;4927304;28;20196;-75
2022/08/07 02:51:27;;;;;;;0.63;0.20;;;;;;;16.94;42.29;97805.66;4911481;28;20216;-74
2022/08/07 02:53:53;;;;;;;1.00;0.20;;;;;;;16.95;42.29;97804.63;4925754;28;20291;-74
2022/08/07 02:56:20;;;;;;;2.10;0.25;;;;;;;16.93;42.36;97811.19;4924234;28;20131;-75
2022/08/07 02:58:46;;;;;;;0.35;0.30;;;;;;;16.86;42.42;97800.94;4910909;28;20248;-75
2022/08/07 03:01:12;;;;;;;1.63;0.20;;;;;;;16.84;42.55;97793.38;4943728;28;20275;-74
2022/08/07 03:03:38;;;;;;;0.20;0.20;;;;;;;16.86;42.50;97793.06;4933525;28;20201;-76
2022/08/07 03:06:04;;;;;;;0.43;0.25;;;;;;;16.92;42.29;97799.88;4921510;28;20286;-74
2022/08/07 03:08:30;;;;;;;0.93;0.20;;;;;;;16.86;42.59;97790.44;4943312;28;20455;-74
2022/08/07 03:10:56;;;;;;;0.30;0.20;;;;;;;16.80;42.76;97796.75;4943575;28;20196;-75
2022/08/07 03:13:21;;;;;;;2.83;0.30;;;;;;;16.72;42.95;97794.69;4938150;28;20522;-74
2022/08/07 03:15:47;;;;;;;1.42;0.20;;;;;;;16.78;42.95;97791.75;4935304;28;20751;-74
2022/08/07 03:18:14;;;;;;;0.50;0.50;;;;;;;16.72;42.99;97792.81;4926838;28;20273;-74
2022/08/07 03:20:40;;;;;;;0.28;0.20;;;;;;;16.67;43.28;97793.66;4924927;28;20672;-74
2022/08/07 03:23:06;;;;;;;0.63;0.20;;;;;;;16.59;43.38;97786.31;4910116;28;20166;-74
2022/08/07 03:25:34;;;;;;;0.98;0.30;;;;;;;16.48;43.45;97784.75;4916583;28;20199;-74
2022/08/07 03:28:01;;;;;;;1.23;0.20;;;;;;;16.41;43.77;97785.03;4944533;28;20279;-75
2022/08/07 03:30:27;;;;;;;0.90;0.20;;;;;;;16.43;43.76;97787.41;4927114;28;20297;-74
2022/08/07 03:32:53;;;;;;;2.05;0.20;;;;;;;16.32;44.05;97783.25;4925845;28;20662;-74
2022/08/07 03:35:22;;;;;;;0.57;0.30;;;;;;;16.29;44.07;97785.31;4910014;28;20205;-74
2022/08/07 03:37:52;;;;;;;0.50;0.30;;;;;;;16.21;44.25;97785.06;4910068;28;20155;-75
2022/08/07 03:40:19;;;;;;;0.38;0.20;;;;;;;16.22;44.23;97778.78;4926342;28;20088;-74
2022/08/07 03:42:44;;;;;;;1.38;0.20;;;;;;;16.23;44.08;97781.16;4929008;28;20178;-74
2022/08/07 03:45:10;;;;;;;0.75;0.30;;;;;;;16.16;44.23;97785.91;4932388;28;20586;-76
2022/08/07 03:47:36;;;;;;;10.02;0.60;;;;;;;16.08;44.59;97791.69;4931540;28;20638;-76
2022/08/07 03:50:02;;;;;;;0.28;0.20;;;;;;;16.20;44.31;97794.03;4901313;28;20186;-76
2022/08/07 03:52:28;;;;;;;0.40;0.13;;;;;;;16.26;44.34;97788.50;4936314;28;20213;-76
2022/08/07 03:54:58;;;;;;;0.32;0.20;;;;;;;16.12;44.44;97795.34;4898975;28;20703;-77
2022/08/07 03:57:28;;;;;;;1.48;0.20;;;;;;;16.12;44.32;97797.19;4932570;28;20705;-76
2022/08/07 03:59:54;;;;;;;0.95;0.20;;;;;;;16.25;44.20;97801.91;4898606;28;20366;-75
2022/08/07 04:02:19;;;;;;;0.32;0.20;;;;;;;16.15;44.27;97794.03;4931612;28;20260;-74
2022/08/07 04:04:45;;;;;;;1.10;0.20;;;;;;;16.08;44.56;97792.44;4931325;28;20279;-75
2022/08/07 04:07:10;;;;;;;1.08;0.20;;;;;;;16.16;44.38;97795.59;4949119;28;20273;-75
2022/08/07 04:09:36;;;;;;;0.30;0.20;;;;;;;16.16;44.61;97796.41;4929979;28;20261;-74
2022/08/07 04:12:02;;;;;;;0.30;0.20;;;;;;;16.13;44.49;97802.19;4931438;28;20649;-74
2022/08/07 04:14:27;;;;;;;1.33;0.40;;;;;;;16.14;44.56;97803.75;4931126;28;20340;-74
2022/08/07 04:16:53;;;;;;;0.57;0.20;;;;;;;16.11;44.71;97806.91;4930448;28;20267;-74
2022/08/07 04:19:18;;;;;;;1.45;0.30;;;;;;;16.12;44.57;97803.22;4929418;28;20267;-74
2022/08/07 04:21:44;;;;;;;0.20;0.20;;;;;;;16.16;44.54;97800.84;4915025;28;20178;-74
2022/08/07 04:24:11;;;;;;;1.23;0.40;;;;;;;16.20;44.39;97807.94;4931222;28;20289;-75
2022/08/07 04:26:40;;;;;;;0.35;0.20;;;;;;;16.11;44.59;97806.91;4898934;28;20248;-74
2022/08/07 04:29:08;;;;;;;0.40;0.20;;;;;;;16.20;44.53;97797.44;4930262;28;20225;-74
2022/08/07 04:31:38;;;;;;;0.88;0.30;;;;;;;16.21;44.60;97812.16;4915133;28;20376;-74
2022/08/07 04:34:04;;;;;;;1.00;0.20;;;;;;;16.14;44.54;97806.38;4931107;28;20201;-74
2022/08/07 04:36:30;;;;;;;0.40;0.20;;;;;;;16.18;44.86;97809.28;4914364;28;20707;-74
2022/08/07 04:38:56;;;;;;;0.20;0.20;;;;;;;16.18;44.71;97814.53;4926545;28;20201;-74
2022/08/07 04:41:21;;;;;;;0.20;0.20;;;;;;;16.15;44.68;97812.44;4912798;28;20213;-74
2022/08/07 04:43:47;;;;;;;0.63;0.28;;;;;;;16.24;45.09;97827.38;4912552;28;20239;-74
2022/08/07 04:46:22;;;;;;;0.30;0.20;;;;;;;16.28;44.51;97828.44;4932638;28;20231;-74
2022/08/07 04:48:56;;;;;;;0.65;0.20;;;;;;;16.26;44.75;97829.75;4932087;28;20258;-74
2022/08/07 04:51:53;;;;;;;0.40;0.30;;;;;;;16.21;44.90;97827.94;4919075;28;20200;-74
2022/08/07 04:54:35;;;;;;;1.50;0.30;;;;;;;16.24;44.64;97832.63;4923730;28;20631;-74
2022/08/07 04:57:12;;;;;;;0.60;0.30;;;;;;;16.28;44.60;97832.91;4940767;28;20139;-77
2022/08/07 04:59:41;;;;;;;0.40;0.40;;;;;;;16.19;44.66;97829.22;4955977;28;20283;-74
2022/08/07 05:02:27;;;;;;;0.57;0.40;;;;;;;16.22;44.82;97834.75;4954024;28;20239;-74
2022/08/07 05:05:05;;;;;;;0.50;0.30;;;;;;;16.23;44.71;97841.59;4955797;28;20358;-76
2022/08/07 05:07:37;;;;;;;0.38;0.28;;;;;;;16.29;44.53;97835.25;4904515;28;20190;-74
2022/08/07 05:10:08;;;;;;;0.70;0.30;;;;;;;16.33;44.79;97837.34;4936598;28;20277;-74
2022/08/07 05:12:41;;;;;;;0.95;0.20;;;;;;;16.32;44.84;97833.16;4936808;28;20693;-74
2022/08/07 05:15:16;;;;;;;0.30;0.30;;;;;;;16.39;44.77;97834.47;4938696;28;20192;-74
2022/08/07 05:17:45;;;;;;;;;;;;;;;16.16;45.15;97829.75;4939290;28;20196;-75
2022/08/07 05:20:12;;;;;;;0.20;0.20;;;;;;;16.45;44.94;97837.84;4919743;28;20085;-75
2022/08/07 05:22:40;;;;;;;0.20;0.20;;;;;;;16.48;44.77;97837.34;4935704;28;20667;-76
2022/08/07 05:25:07;;;;;;;1.13;0.30;;;;;;;16.54;44.38;97846.78;4941038;28;20226;-76
2022/08/07 05:27:33;;;;;;;1.05;0.30;;;;;;;16.73;44.40;97840.97;4915097;28;20566;-76
2022/08/07 05:29:59;;;;;;;1.15;0.63;;;;;;;16.77;44.27;97844.63;4913422;28;20193;-77
2022/08/07 05:32:25;;;;;;;1.02;0.20;;;;;;;16.91;43.80;97840.38;4930910;28;20212;-76
2022/08/07 05:34:51;;;;;;;0.25;0.20;;;;;;;16.88;44.06;97851.47;4913666;28;20273;-77
2022/08/07 05:37:17;;;;;;;0.30;0.28;;;;;;;16.81;43.99;97856.19;4931922;28;20190;-77
2022/08/07 05:39:43;;;;;;;0.68;0.30;;;;;;;16.99;43.32;97852.22;4929868;28;20320;-76
2022/08/07 05:42:09;;;;;;;1.42;0.20;;;;;;;17.02;43.62;97852.47;4930689;28;20107;-76
2022/08/07 05:44:35;;;;;;;1.10;0.30;;;;;;;17.08;43.42;97857.69;4926482;28;20182;-76
2022/08/07 05:47:00;;;;;;;0.40;0.40;;;;;;;17.15;43.41;97861.63;4878439;28;20201;-77
2022/08/07 05:49:26;;;;;;;0.30;0.20;;;;;;;17.22;43.10;97854.22;4908245;28;20204;-76
2022/08/07 05:51:52;;;;;;;1.40;0.40;;;;;;;17.24;43.15;97856.59;4928526;28;20178;-76
2022/08/07 05:54:18;;;;;;;0.63;0.57;;;;;;;17.35;42.90;97858.09;4913467;28;20579;-76
2022/08/07 05:56:45;;;;;;;0.80;0.20;;;;;;;17.34;42.77;97853.91;4913062;28;20196;-76
2022/08/07 05:59:14;;;;;;;0.90;0.20;;;;;;;17.49;42.53;97845.13;4911646;28;20312;-76
2022/08/07 06:01:40;;;;;;;1.80;0.20;;;;;;;17.53;42.77;97848.00;4913621;28;20672;-76
2022/08/07 06:04:07;;;;;;;0.43;0.40;;;;;;;17.60;42.16;97851.13;4928761;28;20200;-76
2022/08/07 06:06:33;;;;;;;0.68;0.20;;;;;;;17.60;42.14;97857.19;4928699;28;20208;-77
2022/08/07 06:09:00;;;;;;;1.20;0.20;;;;;;;17.76;42.36;97855.22;4912635;28;20166;-76
2022/08/07 06:11:25;;;;;;;0.40;0.30;;;;;;;17.66;42.45;97860.56;4929327;28;20283;-76
2022/08/07 06:13:51;;;;;;;0.47;0.30;;;;;;;17.60;42.13;97870.34;4912716;28;20198;-76
2022/08/07 06:16:16;;;;;;;0.57;0.20;;;;;;;17.92;41.97;97868.31;4928729;28;20261;-77
2022/08/07 06:18:43;;;;;;;2.15;0.22;;;;;;;17.98;41.43;97867.22;4929740;28;20227;-76
2022/08/07 06:21:09;;;;;;;1.15;0.20;;;;;;;17.69;41.91;97872.41;4939378;28;20298;-76
2022/08/07 06:23:35;;;;;;;2.78;0.30;;;;;;;17.80;42.00;97868.63;4922267;28;20180;-76
2022/08/07 06:26:01;;;;;;;0.63;0.47;;;;;;;18.07;41.58;97870.06;4905113;28;20298;-76
2022/08/07 06:28:26;;;;;;;2.08;0.20;;;;;;;18.13;41.54;97863.69;4919670;28;20275;-77
2022/08/07 06:30:52;;;;;;;2.65;0.38;;;;;;;18.15;41.38;97864.97;4906732;28;20230;-77
2022/08/07 06:33:18;;;;;;;0.73;0.20;;;;;;;18.36;41.12;97874.56;4938538;28;20276;-77
2022/08/07 06:35:43;;;;;;;0.52;0.20;;;;;;;18.39;41.13;97869.53;4936527;28;21351;-76
2022/08/07 06:38:09;;;;;;;0.98;0.20;;;;;;;18.48;41.10;97869.69;4935559;28;20196;-76
2022/08/07 06:40:46;;;;;;;2.28;0.57;;;;;;;18.44;40.67;97866.03;4955950;28;20665;-76
2022/08/07 06:43:12;;;;;;;0.80;0.20;;;;;;;18.71;40.44;97871.59;4918827;28;20231;-77
2022/08/07 06:45:37;;;;;;;1.35;0.32;;;;;;;18.65;40.48;97870.06;4938046;28;20425;-77
2022/08/07 06:48:05;;;;;;;0.47;0.22;;;;;;;18.82;39.97;97869.66;4920593;28;20253;-76
2022/08/07 06:50:32;;;;;;;0.98;0.20;;;;;;;18.97;40.00;97870.53;4952576;28;20247;-75
2022/08/07 06:52:59;;;;;;;0.55;0.20;;;;;;;19.06;39.63;97868.84;4922054;28;20170;-75
2022/08/07 06:55:31;;;;;;;0.30;0.30;;;;;;;19.23;39.70;97871.81;4915347;28;20233;-75
2022/08/07 06:58:02;;;;;;;0.55;0.30;;;;;;;19.63;38.77;97877.59;4909491;28;20276;-75
2022/08/07 07:00:32;;;;;;;1.75;0.32;;;;;;;20.01;38.04;97869.69;4946316;28;20240;-75
2022/08/07 07:02:58;;;;;;;0.28;0.20;;;;;;;20.04;38.20;97876.25;4901283;28;20270;-75
2022/08/07 07:05:23;;;;;;;1.10;0.28;;;;;;;20.26;37.93;97875.63;4912017;28;20277;-75
2022/08/07 07:07:48;;;;;;;0.57;0.20;;;;;;;20.42;37.25;97875.38;4910221;28;20206;-74
2022/08/07 07:10:14;;;;;;;1.08;0.20;;;;;;;20.89;36.81;97876.16;4896060;28;20162;-74
2022/08/07 07:12:47;;;;;;;0.75;0.25;;;;;;;21.20;36.20;97872.88;4928337;28;20253;-75
2022/08/07 07:15:16;;;;;;;0.73;0.30;;;;;;;20.73;36.63;97876.44;4928238;28;20255;-75
2022/08/07 07:18:07;;;;;;;0.85;0.30;;;;;;;20.95;36.65;97877.59;4928187;28;20236;-74
2022/08/07 07:20:35;;;;;;;0.50;0.30;;;;;;;21.16;36.32;97882.50;4934302;28;20180;-74
2022/08/07 07:23:01;;;;;;;0.77;0.30;;;;;;;21.48;35.93;97869.13;4931323;28;20193;-75
2022/08/07 07:25:30;;;;;;;1.38;0.35;;;;;;;21.40;35.54;97871.66;4937079;28;20193;-74
2022/08/07 07:28:12;;;;;;;0.50;0.45;;;;;;;21.47;35.68;97875.53;4916989;28;20717;-75
2022/08/07 07:30:41;;;;;;;1.42;0.35;;;;;;;21.98;35.42;97875.44;4932863;28;20189;-75
2022/08/07 07:33:09;;;;;;;0.98;0.30;;;;;;;22.15;35.00;97866.81;4941052;28;20153;-74
2022/08/07 07:35:35;;;;;;;0.55;0.35;;;;;;;22.20;34.72;97870.13;4937565;28;20355;-75
2022/08/07 07:38:02;;;;;;;1.23;0.38;;;;;;;22.33;34.97;97873.81;4935474;28;20251;-74
2022/08/07 07:40:28;;;;;;;0.68;0.32;;;;;;;22.36;34.66;97870.56;4935949;28;20658;-75
2022/08/07 07:42:54;;;;;;;0.73;0.40;;;;;;;22.61;34.44;97868.34;4919094;28;20296;-74
2022/08/07 07:45:22;;;;;;;0.45;0.30;;;;;;;22.88;34.04;97862.03;4919761;28;20683;-74
2022/08/07 07:47:48;;;;;;;1.10;0.47;;;;;;;23.15;33.82;97865.56;4917711;28;20151;-75
2022/08/07 07:50:14;;;;;;;0.65;0.40;;;;;;;23.38;33.57;97860.91;4904592;28;20648;-74
2022/08/07 07:52:41;;;;;;;1.30;0.40;;;;;;;23.44;33.38;97857.03;4920474;28;20628;-75
2022/08/07 07:55:07;;;;;;;0.70;0.50;;;;;;;23.02;34.21;97861.13;4919378;28;20631;-75
2022/08/07 07:57:32;;;;;;;0.60;0.30;;;;;;;23.27;34.23;97856.97;4906515;28;20729;-74
2022/08/07 07:59:59;;;;;;;0.60;0.40;;;;;;;23.65;34.19;97848.44;4930408;28;20376;-74
2022/08/07 08:02:26;;;;;;;1.30;0.40;;;;;;;23.65;33.45;97854.53;4911243;28;20271;-75
2022/08/07 08:04:52;;;;;;;2.20;0.55;;;;;;;23.68;33.56;97847.78;4927513;28;20200;-75
2022/08/07 08:07:18;;;;;;;0.88;0.50;;;;;;;24.08;33.29;97853.72;4910898;28;20224;-75
2022/08/07 08:09:46;;;;;;;1.08;0.50;;;;;;;24.35;32.84;97846.47;4910179;28;20247;-75
2022/08/07 08:12:11;;;;;;;0.77;0.60;;;;;;;24.24;33.11;97850.53;4914004;28;20118;-75
2022/08/07 08:14:37;;;;;;;1.95;0.50;;;;;;;24.05;33.25;97845.59;4936938;28;20220;-75
2022/08/07 08:17:07;;;;;;;2.00;0.73;;;;;;;24.46;33.01;97846.88;4935892;28;20264;-75
2022/08/07 08:19:33;;;;;;;1.42;0.80;;;;;;;24.74;33.21;97844.59;4936282;28;20214;-75
2022/08/07 08:27:37;;;;;;;0.73;0.60;;;;;;;25.33;32.36;97843.03;4932568;28;20256;-75
2022/08/07 08:30:06;;;;;;;0.60;0.60;;;;;;;25.71;31.74;97847.44;4933425;28;20274;-74
2022/08/07 08:32:38;;;;;;;0.82;0.68;;;;;;;25.90;31.63;97838.94;4923505;28;20204;-74
2022/08/07 08:35:04;;;;;;;1.38;1.00;;;;;;;26.31;31.33;97842.63;4916057;28;20189;-75
2022/08/07 08:37:31;;;;;;;1.75;0.95;;;;;;;26.08;31.77;97834.22;4930149;28;20301;-75
2022/08/07 08:39:57;;;;;;;2.13;1.02;;;;;;;25.70;32.22;97840.53;4898365;28;20363;-74
2022/08/07 08:42:42;;;;;;;1.25;0.90;;;;;;;25.82;32.04;97835.25;4898067;28;20281;-75
2022/08/07 08:45:49;;;;;;;1.33;0.80;;;;;;;25.93;32.49;97831.06;4885547;28;20268;-75
2022/08/07 08:48:26;;;;;;;1.17;1.00;;;;;;;26.42;32.08;97829.63;4847931;29;20292;-75
2022/08/07 08:51:29;;;;;;;1.60;1.05;;;;;;;26.38;32.66;97831.41;4833184;29;20289;-75
2022/08/07 08:54:11;;;;;;;1.77;1.10;;;;;;;26.71;32.21;97825.97;4832941;29;20757;-75
2022/08/07 08:56:40;;;;;;;1.33;1.20;;;;;;;27.30;32.04;97832.75;4816638;29;20627;-76
2022/08/07 08:59:17;;;;;;;1.65;1.00;;;;;;;27.28;31.18;97825.06;4848720;29;20183;-75
2022/08/07 09:02:21;;;;;;;1.00;0.98;;;;;;;27.56;31.14;97826.19;4848565;29;20379;-75
2022/08/07 09:05:24;;;;;;;3.25;1.15;;;;;;;27.63;31.26;97827.16;4811487;29;20241;-75
2022/08/07 09:08:14;;;;;;;1.98;1.02;;;;;;;27.80;30.73;97820.72;4829718;29;20644;-75
2022/08/07 09:11:10;;;;;;;1.25;1.20;;;;;;;28.15;30.30;97828.13;4798555;29;20198;-75
2022/08/07 09:14:07;;;;;;;1.25;1.05;;;;;;;28.42;30.43;97820.38;4814423;29;20279;-75
2022/08/07 09:16:48;;;;;;;2.13;1.85;;;;;;;28.44;30.83;97825.41;4829480;29;20316;-75
2022/08/07 09:19:29;;;;;;;1.50;1.40;;;;;;;28.82;29.78;97821.31;4823632;29;20355;-75
2022/08/07 09:22:21;;;;;;;1.40;1.30;;;;;;;28.80;30.27;97813.63;4851107;28;20587;-74
2022/08/07 09:24:54;;;;;;;1.40;0.82;;;;;;;28.94;29.56;97813.16;4850106;28;20367;-75
2022/08/07 09:27:43;;;;;;;1.60;1.50;;;;;;;29.20;29.36;97809.13;4870307;28;20297;-75
2022/08/07 09:30:10;;;;;;;1.58;1.15;;;;;;;28.75;29.85;97811.22;4870589;28;20648;-74
2022/08/07 09:32:41;;;;;;;2.53;1.48;;;;;;;28.86;29.52;97811.47;4860776;28;20733;-74
2022/08/07 09:35:16;;;;;;;2.75;1.25;;;;;;;28.99;29.06;97810.19;4867780;28;20653;-75
2022/08/07 09:37:44;;;;;;;1.02;0.95;;;;;;;28.96;29.28;97813.56;4884606;28;20207;-74
2022/08/07 09:40:19;;;;;;;1.67;1.50;;;;;;;28.87;29.05;97813.00;4894996;28;20235;-74
2022/08/07 09:43:11;;;;;;;1.58;1.10;;;;;;;29.33;28.24;97802.50;4929331;28;20651;-74
2022/08/07 09:46:14;;;;;;;2.78;1.20;;;;;;;29.56;28.45;97801.78;4925923;28;20297;-74
2022/08/07 09:48:46;;;;;;;1.88;1.23;;;;;;;29.27;28.47;97799.34;4923881;28;20271;-75
2022/08/07 09:51:27;;;;;;;1.58;1.48;;;;;;;28.69;29.96;97802.66;4915640;28;20356;-75
2022/08/07 09:53:56;;;;;;;3.33;1.15;;;;;;;28.82;28.09;97789.16;4956326;28;20197;-75
2022/08/07 09:56:53;;;;;;;2.05;1.10;;;;;;;28.90;28.48;97788.94;4942191;28;20134;-75
2022/08/07 09:59:56;;;;;;;1.58;0.93;;;;;;;29.55;27.42;97784.16;4966037;28;20369;-74
2022/08/07 10:02:24;;;;;;;1.60;1.20;;;;;;;30.08;27.75;97778.19;4947931;28;20673;-75
2022/08/07 10:05:02;;;;;;;1.10;1.00;;;;;;;30.25;26.77;97775.03;4966219;28;20658;-75
2022/08/07 10:07:30;;;;;;;1.15;1.00;;;;;;;29.81;26.54;97778.13;4931512;28;20220;-74
2022/08/07 10:10:17;;;;;;;2.20;1.00;;;;;;;29.64;26.02;97763.22;4947384;28;20615;-75
2022/08/07 10:13:08;;;;;;;0.80;0.80;;;;;;;29.13;25.54;97766.81;4946634;28;20096;-75
2022/08/07 10:15:42;;;;;;;1.00;0.90;;;;;;;29.05;26.02;97762.47;4946486;28;20272;-74
2022/08/07 10:18:20;;;;;;;1.35;1.10;;;;;;;28.66;25.72;97770.44;4946139;28;20607;-75
2022/08/07 10:21:07;;;;;;;1.20;1.10;;;;;;;29.48;25.55;97745.31;4912086;28;20195;-74
2022/08/07 10:23:46;;;;;;;1.00;1.00;;;;;;;29.94;25.39;97755.34;4946476;28;20655;-75
2022/08/07 10:26:33;;;;;;;1.20;1.10;;;;;;;30.21;25.81;97750.00;4895735;28;20272;-75
2022/08/07 10:29:08;;;;;;;2.15;1.05;;;;;;;29.56;25.88;97746.22;4914434;28;20211;-75
2022/08/07 10:31:45;;;;;;;0.95;0.80;;;;;;;29.26;25.45;97749.50;4951803;28;20290;-75
2022/08/07 10:34:37;;;;;;;1.00;0.90;;;;;;;29.65;24.43;97749.44;4934247;28;20213;-75
2022/08/07 10:37:06;;;;;;;0.98;0.63;;;;;;;28.72;23.76;97760.97;4911550;28;20236;-74
2022/08/07 10:39:37;;;;;;;0.60;0.60;;;;;;;29.27;22.23;97753.72;4911114;28;20191;-75
2022/08/07 10:42:11;;;;;;;0.65;0.60;;;;;;;29.25;23.04;97752.53;4928087;28;20363;-75
2022/08/07 10:44:37;;;;;;;0.93;0.90;;;;;;;30.13;22.85;97745.66;4908622;28;20202;-75
2022/08/07 10:47:11;;;;;;;0.50;0.50;;;;;;;29.86;22.22;97743.69;4891952;28;20219;-74
2022/08/07 10:49:39;;;;;;;1.00;0.60;;;;;;;29.64;23.05;97745.19;4926304;28;20268;-75
2022/08/07 10:52:14;;;;;;;0.60;0.60;;;;;;;29.66;23.18;97747.53;4927610;28;20159;-74
2022/08/07 10:54:45;;;;;;;1.17;0.60;;;;;;;30.49;22.04;97735.50;4911725;28;20185;-75
2022/08/07 10:57:42;;;;;;;1.67;0.88;;;;;;;30.63;21.68;97738.38;4895562;28;20272;-75
2022/08/07 11:00:10;;;;;;;0.70;0.70;;;;;;;30.72;22.54;97744.22;4927738;28;20186;-75
2022/08/07 11:02:58;;;;;;;1.48;0.75;;;;;;;31.41;21.28;97731.63;4895622;28;20256;-75
2022/08/07 11:05:48;;;;;;;0.73;0.65;;;;;;;31.82;20.32;97727.03;4911581;28;20296;-75
2022/08/07 11:08:51;;;;;;;0.80;0.80;;;;;;;31.99;21.24;97730.25;4911786;28;20281;-75
2022/08/07 11:11:24;;;;;;;2.40;0.85;;;;;;;31.52;22.27;97725.22;4911234;28;20220;-75
2022/08/07 11:13:57;;;;;;;2.30;0.80;;;;;;;31.59;22.96;97726.47;4927900;28;20299;-75
2022/08/07 11:16:26;;;;;;;1.52;1.00;;;;;;;31.35;22.46;97729.25;4911268;28;20289;-75
2022/08/07 11:18:57;;;;;;;1.35;0.90;;;;;;;30.86;22.87;97716.00;4927383;28;20188;-75
2022/08/07 11:21:43;;;;;;;0.93;0.80;;;;;;;30.14;23.07;97728.41;4927867;28;20166;-75
2022/08/07 11:24:29;;;;;;;0.98;0.80;;;;;;;30.01;23.86;97719.78;4945614;28;20155;-75
2022/08/07 11:27:02;;;;;;;1.02;0.80;;;;;;;30.24;23.17;97715.13;4927033;28;20208;-75
2022/08/07 11:29:42;;;;;;;1.02;0.77;;;;;;;29.65;23.24;97711.88;4927073;28;20209;-75
2022/08/07 11:32:16;;;;;;;0.90;0.90;;;;;;;29.57;23.63;97707.50;4927636;28;20549;-74
2022/08/07 11:34:46;;;;;;;1.30;0.80;;;;;;;29.84;22.90;97707.63;4927611;28;20219;-74
2022/08/07 11:37:16;;;;;;;1.77;0.80;;;;;;;29.96;22.47;97712.03;4910797;28;20412;-75
2022/08/07 11:39:42;;;;;;;1.42;0.70;;;;;;;29.51;23.69;97706.28;4911125;28;20162;-75
2022/08/07 11:42:35;;;;;;;1.63;0.82;;;;;;;29.12;22.95;97701.69;4945490;28;20291;-75
2022/08/07 11:45:23;;;;;;;0.98;0.70;;;;;;;29.11;23.84;97718.13;4923944;28;20676;-75
2022/08/07 11:47:55;;;;;;;2.88;0.65;;;;;;;29.20;23.71;97708.00;4907529;28;20542;-75
2022/08/07 11:50:34;;;;;;;0.70;0.70;;;;;;;28.61;24.04;97704.50;4907597;28;20255;-75
2022/08/07 11:53:09;;;;;;;1.20;0.80;;;;;;;29.17;23.83;97697.97;4891947;28;20186;-74
2022/08/07 11:55:54;;;;;;;1.00;0.80;;;;;;;29.03;23.88;97709.19;4907835;28;20277;-76